sensor_id;sensor_type;location;lat;lon;timestamp;temperature;humidity
1337;DHT22;662;48.814;9.318;2023-01-01T00:01:29;16.50;55.80
1337;DHT22;662;48.814;9.318;2023-01-01T00:03:56;16.50;55.80
1337;DHT22;662;48.814;9.318;2023-01-01T00:06:23;16.60;55.80
1337;DHT22;662;48.814;9.318;2023-01-01T00:08:49;16.60;55.80
1337;DHT22;662;48.814;9.318;2023-01-01T00:11:35;16.50;55.80
1337;DHT22;662;48.814;9.318;2023-01-01T00:14:01;16.50;55.70
1337;DHT22;662;48.814;9.318;2023-01-01T00:16:26;16.50;55.70
1337;DHT22;662;48.814;9.318;2023-01-01T00:18:52;16.50;55.80
1337;DHT22;662;48.814;9.318;2023-01-01T00:21:18;16.50;55.70
1337;DHT22;662;48.814;9.318;2023-01-01T00:23:43;16.50;55.70
1337;DHT22;662;48.814;9.318;2023-01-01T00:26:10;16.50;55.70
1337;DHT22;662;48.814;9.318;2023-01-01T00:28:36;16.50;55.80
1337;DHT22;662;48.814;9.318;2023-01-01T00:31:13;16.50;55.80
1337;DHT22;662;48.814;9.318;2023-01-01T00:33:39;16.40;55.70
1337;DHT22;662;48.814;9.318;2023-01-01T00:36:15;16.40;55.70
1337;DHT22;662;48.814;9.318;2023-01-01T00:38:41;16.40;55.80
1337;DHT22;662;48.814;9.318;2023-01-01T00:41:07;16.40;56.40
1337;DHT22;662;48.814;9.318;2023-01-01T00:43:33;16.40;55.90
1337;DHT22;662;48.814;9.318;2023-01-01T00:45:59;16.40;55.90
1337;DHT22;662;48.814;9.318;2023-01-01T00:48:24;16.40;55.90
1337;DHT22;662;48.814;9.318;2023-01-01T00:50:50;16.40;55.70
1337;DHT22;662;48.814;9.318;2023-01-01T00:53:17;16.50;55.80
1337;DHT22;662;48.814;9.318;2023-01-01T00:55:43;16.40;55.70
1337;DHT22;662;48.814;9.318;2023-01-01T00:58:09;16.40;55.70
1337;DHT22;662;48.814;9.318;2023-01-01T01:00:36;16.50;55.60
1337;DHT22;662;48.814;9.318;2023-01-01T01:03:02;16.50;55.50
1337;DHT22;662;48.814;9.318;2023-01-01T01:05:27;16.50;55.40
1337;DHT22;662;48.814;9.318;2023-01-01T01:07:53;16.50;55.30
1337;DHT22;662;48.814;9.318;2023-01-01T01:10:19;16.60;55.20
1337;DHT22;662;48.814;9.318;2023-01-01T01:12:46;16.60;55.20
1337;DHT22;662;48.814;9.318;2023-01-01T01:15:12;16.60;55.10
1337;DHT22;662;48.814;9.318;2023-01-01T01:17:38;16.60;55.10
1337;DHT22;662;48.814;9.318;2023-01-01T01:20:04;16.60;55.00
1337;DHT22;662;48.814;9.318;2023-01-01T01:22:30;16.60;55.00
1337;DHT22;662;48.814;9.318;2023-01-01T01:24:56;16.70;54.90
1337;DHT22;662;48.814;9.318;2023-01-01T01:27:22;16.70;54.80
1337;DHT22;662;48.814;9.318;2023-01-01T01:29:48;16.70;54.80
1337;DHT22;662;48.814;9.318;2023-01-01T01:32:14;16.60;54.80
1337;DHT22;662;48.814;9.318;2023-01-01T01:34:39;16.70;54.90
1337;DHT22;662;48.814;9.318;2023-01-01T01:37:05;16.60;54.90
1337;DHT22;662;48.814;9.318;2023-01-01T01:39:31;16.60;54.90
1337;DHT22;662;48.814;9.318;2023-01-01T01:41:56;16.60;55.10
1337;DHT22;662;48.814;9.318;2023-01-01T01:44:48;16.50;55.10
1337;DHT22;662;48.814;9.318;2023-01-01T01:49:45;16.50;55.20
1337;DHT22;662;48.814;9.318;2023-01-01T01:52:11;16.50;55.20
1337;DHT22;662;48.814;9.318;2023-01-01T01:54:37;16.50;55.20
1337;DHT22;662;48.814;9.318;2023-01-01T01:57:07;16.50;55.20
1337;DHT22;662;48.814;9.318;2023-01-01T01:59:40;16.40;55.20
1337;DHT22;662;48.814;9.318;2023-01-01T02:02:13;16.40;55.40
1337;DHT22;662;48.814;9.318;2023-01-01T02:04:41;16.30;55.50
1337;DHT22;662;48.814;9.318;2023-01-01T02:07:07;16.30;55.50
1337;DHT22;662;48.814;9.318;2023-01-01T02:09:33;16.30;55.50
1337;DHT22;662;48.814;9.318;2023-01-01T02:11:58;16.30;55.50
1337;DHT22;662;48.814;9.318;2023-01-01T02:14:24;16.30;55.60
1337;DHT22;662;48.814;9.318;2023-01-01T02:17:15;16.30;55.60
1337;DHT22;662;48.814;9.318;2023-01-01T02:25:16;16.30;55.60
1337;DHT22;662;48.814;9.318;2023-01-01T02:28:00;16.30;55.50
1337;DHT22;662;48.814;9.318;2023-01-01T02:30:30;16.30;55.50
1337;DHT22;662;48.814;9.318;2023-01-01T02:33:01;16.30;55.40
1337;DHT22;662;48.814;9.318;2023-01-01T02:35:32;16.40;55.40
1337;DHT22;662;48.814;9.318;2023-01-01T02:38:10;16.40;55.30
1337;DHT22;662;48.814;9.318;2023-01-01T02:40:41;16.40;55.10
1337;DHT22;662;48.814;9.318;2023-01-01T02:43:08;16.50;55.00
1337;DHT22;662;48.814;9.318;2023-01-01T02:45:34;16.50;54.90
1337;DHT22;662;48.814;9.318;2023-01-01T02:48:34;16.50;54.90
1337;DHT22;662;48.814;9.318;2023-01-01T02:50:53;16.50;54.90
1337;DHT22;662;48.814;9.318;2023-01-01T02:53:28;16.50;54.90
1337;DHT22;662;48.814;9.318;2023-01-01T02:56:30;16.60;54.90
1337;DHT22;662;48.814;9.318;2023-01-01T03:04:51;16.60;54.70
1337;DHT22;662;48.814;9.318;2023-01-01T03:07:34;16.60;54.60
1337;DHT22;662;48.814;9.318;2023-01-01T03:10:15;16.60;54.60
1337;DHT22;662;48.814;9.318;2023-01-01T03:12:58;16.60;54.60
1337;DHT22;662;48.814;9.318;2023-01-01T03:15:37;16.60;54.50
1337;DHT22;662;48.814;9.318;2023-01-01T03:18:17;16.60;54.50
1337;DHT22;662;48.814;9.318;2023-01-01T03:20:49;16.60;54.40
1337;DHT22;662;48.814;9.318;2023-01-01T03:23:21;16.60;54.40
1337;DHT22;662;48.814;9.318;2023-01-01T03:25:52;16.60;54.60
1337;DHT22;662;48.814;9.318;2023-01-01T03:28:31;16.60;54.70
1337;DHT22;662;48.814;9.318;2023-01-01T03:30:59;16.60;54.70
1337;DHT22;662;48.814;9.318;2023-01-01T03:33:41;16.50;54.70
1337;DHT22;662;48.814;9.318;2023-01-01T03:36:16;16.50;54.70
1337;DHT22;662;48.814;9.318;2023-01-01T03:38:59;16.50;54.80
1337;DHT22;662;48.814;9.318;2023-01-01T03:44:11;16.50;55.00
1337;DHT22;662;48.814;9.318;2023-01-01T03:46:37;16.50;55.00
1337;DHT22;662;48.814;9.318;2023-01-01T03:49:05;16.50;54.90
1337;DHT22;662;48.814;9.318;2023-01-01T03:54:42;16.50;55.00
1337;DHT22;662;48.814;9.318;2023-01-01T04:00:06;16.50;55.00
1337;DHT22;662;48.814;9.318;2023-01-01T04:02:38;16.40;54.90
1337;DHT22;662;48.814;9.318;2023-01-01T04:05:05;16.40;55.00
1337;DHT22;662;48.814;9.318;2023-01-01T04:07:32;16.50;55.00
1337;DHT22;662;48.814;9.318;2023-01-01T04:10:00;16.40;54.90
1337;DHT22;662;48.814;9.318;2023-01-01T04:12:27;16.40;54.90
1337;DHT22;662;48.814;9.318;2023-01-01T04:14:52;16.40;55.00
1337;DHT22;662;48.814;9.318;2023-01-01T04:17:18;16.40;54.90
1337;DHT22;662;48.814;9.318;2023-01-01T04:19:44;16.40;55.00
1337;DHT22;662;48.814;9.318;2023-01-01T04:22:09;16.40;55.00
1337;DHT22;662;48.814;9.318;2023-01-01T04:24:35;16.40;55.10
1337;DHT22;662;48.814;9.318;2023-01-01T04:27:00;16.30;55.10
1337;DHT22;662;48.814;9.318;2023-01-01T04:29:26;16.30;55.10
1337;DHT22;662;48.814;9.318;2023-01-01T04:31:52;16.20;55.10
1337;DHT22;662;48.814;9.318;2023-01-01T04:34:17;16.20;55.20
1337;DHT22;662;48.814;9.318;2023-01-01T04:36:43;16.20;55.30
1337;DHT22;662;48.814;9.318;2023-01-01T04:39:09;16.20;55.30
1337;DHT22;662;48.814;9.318;2023-01-01T04:41:34;16.20;55.30
1337;DHT22;662;48.814;9.318;2023-01-01T04:44:01;16.10;55.30
1337;DHT22;662;48.814;9.318;2023-01-01T04:46:26;16.10;55.40
1337;DHT22;662;48.814;9.318;2023-01-01T04:48:52;16.20;55.40
1337;DHT22;662;48.814;9.318;2023-01-01T04:51:20;16.10;55.40
1337;DHT22;662;48.814;9.318;2023-01-01T04:53:46;16.10;55.30
1337;DHT22;662;48.814;9.318;2023-01-01T04:56:14;16.10;55.40
1337;DHT22;662;48.814;9.318;2023-01-01T04:58:41;16.10;56.00
1337;DHT22;662;48.814;9.318;2023-01-01T05:01:07;16.10;55.40
1337;DHT22;662;48.814;9.318;2023-01-01T05:03:33;16.10;55.40
1337;DHT22;662;48.814;9.318;2023-01-01T05:06:04;16.10;55.30
1337;DHT22;662;48.814;9.318;2023-01-01T05:08:31;16.10;55.30
1337;DHT22;662;48.814;9.318;2023-01-01T05:11:01;16.10;55.40
1337;DHT22;662;48.814;9.318;2023-01-01T05:13:27;16.10;55.40
1337;DHT22;662;48.814;9.318;2023-01-01T05:15:53;16.10;55.50
1337;DHT22;662;48.814;9.318;2023-01-01T05:18:19;16.10;55.40
1337;DHT22;662;48.814;9.318;2023-01-01T05:20:44;16.10;55.40
1337;DHT22;662;48.814;9.318;2023-01-01T05:23:10;16.10;55.40
1337;DHT22;662;48.814;9.318;2023-01-01T05:25:36;16.10;55.40
1337;DHT22;662;48.814;9.318;2023-01-01T05:28:01;16.10;55.50
1337;DHT22;662;48.814;9.318;2023-01-01T05:30:27;16.00;55.50
1337;DHT22;662;48.814;9.318;2023-01-01T05:32:52;16.00;55.60
1337;DHT22;662;48.814;9.318;2023-01-01T05:35:18;16.00;55.60
1337;DHT22;662;48.814;9.318;2023-01-01T05:37:44;16.00;55.60
1337;DHT22;662;48.814;9.318;2023-01-01T05:40:10;16.00;55.70
1337;DHT22;662;48.814;9.318;2023-01-01T05:42:35;16.00;55.80
1337;DHT22;662;48.814;9.318;2023-01-01T05:45:02;15.90;55.70
1337;DHT22;662;48.814;9.318;2023-01-01T05:47:28;15.90;55.80
1337;DHT22;662;48.814;9.318;2023-01-01T05:49:53;15.90;56.30
1337;DHT22;662;48.814;9.318;2023-01-01T05:52:19;15.90;55.80
1337;DHT22;662;48.814;9.318;2023-01-01T05:54:44;15.90;55.80
1337;DHT22;662;48.814;9.318;2023-01-01T05:57:10;15.90;55.90
1337;DHT22;662;48.814;9.318;2023-01-01T05:59:36;15.80;55.80
1337;DHT22;662;48.814;9.318;2023-01-01T06:02:01;15.80;55.70
1337;DHT22;662;48.814;9.318;2023-01-01T06:04:27;15.80;55.70
1337;DHT22;662;48.814;9.318;2023-01-01T06:06:52;15.80;55.80
1337;DHT22;662;48.814;9.318;2023-01-01T06:09:18;15.80;55.70
1337;DHT22;662;48.814;9.318;2023-01-01T06:11:44;15.80;55.70
1337;DHT22;662;48.814;9.318;2023-01-01T06:14:09;15.80;55.70
1337;DHT22;662;48.814;9.318;2023-01-01T06:16:35;15.80;55.60
1337;DHT22;662;48.814;9.318;2023-01-01T06:19:00;15.80;55.60
1337;DHT22;662;48.814;9.318;2023-01-01T06:21:27;15.90;55.70
1337;DHT22;662;48.814;9.318;2023-01-01T06:23:57;15.80;55.60
1337;DHT22;662;48.814;9.318;2023-01-01T06:26:28;15.80;55.60
1337;DHT22;662;48.814;9.318;2023-01-01T06:28:55;15.80;55.60
1337;DHT22;662;48.814;9.318;2023-01-01T06:31:21;15.80;55.60
1337;DHT22;662;48.814;9.318;2023-01-01T06:33:47;15.80;55.60
1337;DHT22;662;48.814;9.318;2023-01-01T06:36:15;15.80;55.50
1337;DHT22;662;48.814;9.318;2023-01-01T06:38:43;15.80;55.50
1337;DHT22;662;48.814;9.318;2023-01-01T06:41:11;15.80;55.40
1337;DHT22;662;48.814;9.318;2023-01-01T06:43:37;15.80;55.30
1337;DHT22;662;48.814;9.318;2023-01-01T06:46:13;15.80;55.30
1337;DHT22;662;48.814;9.318;2023-01-01T06:48:39;15.80;55.30
1337;DHT22;662;48.814;9.318;2023-01-01T06:51:12;15.80;55.30
1337;DHT22;662;48.814;9.318;2023-01-01T06:53:39;15.80;55.20
1337;DHT22;662;48.814;9.318;2023-01-01T06:56:05;15.80;55.10
1337;DHT22;662;48.814;9.318;2023-01-01T06:58:31;15.80;55.00
1337;DHT22;662;48.814;9.318;2023-01-01T07:01:20;15.80;55.00
1337;DHT22;662;48.814;9.318;2023-01-01T07:03:51;15.80;54.90
1337;DHT22;662;48.814;9.318;2023-01-01T07:06:16;15.80;54.80
1337;DHT22;662;48.814;9.318;2023-01-01T07:08:42;15.90;54.70
1337;DHT22;662;48.814;9.318;2023-01-01T07:11:08;15.90;54.60
1337;DHT22;662;48.814;9.318;2023-01-01T07:13:34;15.90;54.50
1337;DHT22;662;48.814;9.318;2023-01-01T07:15:59;15.90;54.50
1337;DHT22;662;48.814;9.318;2023-01-01T07:18:25;15.90;54.30
1337;DHT22;662;48.814;9.318;2023-01-01T07:21:05;15.90;54.20
1337;DHT22;662;48.814;9.318;2023-01-01T07:23:32;15.90;54.10
1337;DHT22;662;48.814;9.318;2023-01-01T07:25:59;16.00;54.10
1337;DHT22;662;48.814;9.318;2023-01-01T07:28:25;16.00;53.90
1337;DHT22;662;48.814;9.318;2023-01-01T07:30:51;16.00;53.80
1337;DHT22;662;48.814;9.318;2023-01-01T07:33:22;16.10;53.70
1337;DHT22;662;48.814;9.318;2023-01-01T07:35:48;16.10;53.60
1337;DHT22;662;48.814;9.318;2023-01-01T07:38:14;16.10;53.40
1337;DHT22;662;48.814;9.318;2023-01-01T07:40:41;16.20;53.40
1337;DHT22;662;48.814;9.318;2023-01-01T07:43:07;16.20;53.30
1337;DHT22;662;48.814;9.318;2023-01-01T07:45:33;16.20;53.30
1337;DHT22;662;48.814;9.318;2023-01-01T07:47:59;16.20;53.40
1337;DHT22;662;48.814;9.318;2023-01-01T07:50:29;16.20;53.40
1337;DHT22;662;48.814;9.318;2023-01-01T07:52:54;16.20;53.40
1337;DHT22;662;48.814;9.318;2023-01-01T07:55:20;16.20;53.40
1337;DHT22;662;48.814;9.318;2023-01-01T07:57:46;16.10;53.30
1337;DHT22;662;48.814;9.318;2023-01-01T08:00:15;16.10;53.50
1337;DHT22;662;48.814;9.318;2023-01-01T08:02:41;16.10;53.40
1337;DHT22;662;48.814;9.318;2023-01-01T08:05:07;16.10;53.40
1337;DHT22;662;48.814;9.318;2023-01-01T08:07:33;16.10;53.40
1337;DHT22;662;48.814;9.318;2023-01-01T08:09:59;16.10;53.40
1337;DHT22;662;48.814;9.318;2023-01-01T08:12:25;16.10;53.60
1337;DHT22;662;48.814;9.318;2023-01-01T08:14:50;16.10;53.50
1337;DHT22;662;48.814;9.318;2023-01-01T08:17:16;16.10;53.60
1337;DHT22;662;48.814;9.318;2023-01-01T08:19:42;16.10;53.60
1337;DHT22;662;48.814;9.318;2023-01-01T08:22:09;16.10;53.70
1337;DHT22;662;48.814;9.318;2023-01-01T08:24:35;16.00;53.70
1337;DHT22;662;48.814;9.318;2023-01-01T08:27:00;16.00;53.70
1337;DHT22;662;48.814;9.318;2023-01-01T08:29:26;16.00;53.70
1337;DHT22;662;48.814;9.318;2023-01-01T08:31:51;16.00;53.60
1337;DHT22;662;48.814;9.318;2023-01-01T08:34:17;16.00;53.70
1337;DHT22;662;48.814;9.318;2023-01-01T08:36:42;16.00;53.60
1337;DHT22;662;48.814;9.318;2023-01-01T08:39:08;16.00;53.50
1337;DHT22;662;48.814;9.318;2023-01-01T08:41:34;16.00;53.30
1337;DHT22;662;48.814;9.318;2023-01-01T08:44:00;16.00;53.30
1337;DHT22;662;48.814;9.318;2023-01-01T08:46:25;16.10;53.30
1337;DHT22;662;48.814;9.318;2023-01-01T08:48:51;16.10;53.30
1337;DHT22;662;48.814;9.318;2023-01-01T08:51:17;16.10;53.30
1337;DHT22;662;48.814;9.318;2023-01-01T08:53:43;16.10;53.20
1337;DHT22;662;48.814;9.318;2023-01-01T08:56:10;16.10;53.10
1337;DHT22;662;48.814;9.318;2023-01-01T08:58:38;16.20;53.20
1337;DHT22;662;48.814;9.318;2023-01-01T09:01:05;16.20;53.10
1337;DHT22;662;48.814;9.318;2023-01-01T09:03:31;16.20;53.00
1337;DHT22;662;48.814;9.318;2023-01-01T09:05:57;16.20;52.90
1337;DHT22;662;48.814;9.318;2023-01-01T09:08:23;16.30;53.00
1337;DHT22;662;48.814;9.318;2023-01-01T09:10:50;16.30;52.80
1337;DHT22;662;48.814;9.318;2023-01-01T09:13:18;16.30;52.70
1337;DHT22;662;48.814;9.318;2023-01-01T09:15:44;16.30;52.80
1337;DHT22;662;48.814;9.318;2023-01-01T09:18:10;16.40;52.90
1337;DHT22;662;48.814;9.318;2023-01-01T09:20:36;16.40;52.80
1337;DHT22;662;48.814;9.318;2023-01-01T09:23:02;16.40;53.00
1337;DHT22;662;48.814;9.318;2023-01-01T09:25:28;16.40;52.90
1337;DHT22;662;48.814;9.318;2023-01-01T09:27:58;16.40;53.00
1337;DHT22;662;48.814;9.318;2023-01-01T09:30:24;16.40;52.90
1337;DHT22;662;48.814;9.318;2023-01-01T09:32:49;16.40;52.80
1337;DHT22;662;48.814;9.318;2023-01-01T09:35:15;16.40;52.70
1337;DHT22;662;48.814;9.318;2023-01-01T09:37:41;16.40;52.70
1337;DHT22;662;48.814;9.318;2023-01-01T09:40:08;16.50;52.70
1337;DHT22;662;48.814;9.318;2023-01-01T09:42:45;16.50;52.70
1337;DHT22;662;48.814;9.318;2023-01-01T09:45:27;16.50;52.70
1337;DHT22;662;48.814;9.318;2023-01-01T09:47:59;16.50;52.70
1337;DHT22;662;48.814;9.318;2023-01-01T09:50:41;16.50;52.70
1337;DHT22;662;48.814;9.318;2023-01-01T09:53:17;16.50;52.60
1337;DHT22;662;48.814;9.318;2023-01-01T09:55:50;16.50;52.40
1337;DHT22;662;48.814;9.318;2023-01-01T09:58:21;16.50;52.40
1337;DHT22;662;48.814;9.318;2023-01-01T10:00:51;16.50;52.50
1337;DHT22;662;48.814;9.318;2023-01-01T10:14:42;16.70;52.40
1337;DHT22;662;48.814;9.318;2023-01-01T10:17:17;16.70;52.30
1337;DHT22;662;48.814;9.318;2023-01-01T10:20:10;16.80;52.00
1337;DHT22;662;48.814;9.318;2023-01-01T10:22:36;16.80;51.90
1337;DHT22;662;48.814;9.318;2023-01-01T10:25:24;16.90;52.00
1337;DHT22;662;48.814;9.318;2023-01-01T10:28:12;17.00;51.80
1337;DHT22;662;48.814;9.318;2023-01-01T10:30:39;17.10;51.70
1337;DHT22;662;48.814;9.318;2023-01-01T10:33:11;17.10;51.50
1337;DHT22;662;48.814;9.318;2023-01-01T10:35:44;17.20;51.20
1337;DHT22;662;48.814;9.318;2023-01-01T10:38:22;17.30;51.50
1337;DHT22;662;48.814;9.318;2023-01-01T10:40:49;17.30;51.60
1337;DHT22;662;48.814;9.318;2023-01-01T10:43:16;17.30;51.40
1337;DHT22;662;48.814;9.318;2023-01-01T10:45:47;17.30;51.30
1337;DHT22;662;48.814;9.318;2023-01-01T10:48:26;17.40;51.30
1337;DHT22;662;48.814;9.318;2023-01-01T10:50:58;17.50;51.40
1337;DHT22;662;48.814;9.318;2023-01-01T10:56:06;17.50;50.90
1337;DHT22;662;48.814;9.318;2023-01-01T11:01:12;17.60;51.00
1337;DHT22;662;48.814;9.318;2023-01-01T11:06:37;17.70;50.70
1337;DHT22;662;48.814;9.318;2023-01-01T11:09:05;17.70;50.40
1337;DHT22;662;48.814;9.318;2023-01-01T11:11:44;17.70;50.10
1337;DHT22;662;48.814;9.318;2023-01-01T11:14:19;17.80;50.40
1337;DHT22;662;48.814;9.318;2023-01-01T11:16:46;17.80;50.50
1337;DHT22;662;48.814;9.318;2023-01-01T11:19:27;17.80;50.60
1337;DHT22;662;48.814;9.318;2023-01-01T11:21:53;17.90;50.80
1337;DHT22;662;48.814;9.318;2023-01-01T11:24:24;17.90;50.80
1337;DHT22;662;48.814;9.318;2023-01-01T11:26:51;17.90;50.70
1337;DHT22;662;48.814;9.318;2023-01-01T11:29:26;17.90;50.60
1337;DHT22;662;48.814;9.318;2023-01-01T11:31:52;17.90;50.20
1337;DHT22;662;48.814;9.318;2023-01-01T11:37:16;17.90;50.20
1337;DHT22;662;48.814;9.318;2023-01-01T11:39:49;18.00;50.10
1337;DHT22;662;48.814;9.318;2023-01-01T11:42:21;18.00;50.10
1337;DHT22;662;48.814;9.318;2023-01-01T11:44:54;18.00;50.30
1337;DHT22;662;48.814;9.318;2023-01-01T11:47:36;18.00;50.10
1337;DHT22;662;48.814;9.318;2023-01-01T11:50:23;18.10;50.00
1337;DHT22;662;48.814;9.318;2023-01-01T11:52:50;18.10;50.00
1337;DHT22;662;48.814;9.318;2023-01-01T11:55:42;18.20;49.90
1337;DHT22;662;48.814;9.318;2023-01-01T11:58:17;18.20;49.90
1337;DHT22;662;48.814;9.318;2023-01-01T12:00:45;18.20;50.00
1337;DHT22;662;48.814;9.318;2023-01-01T12:06:13;18.30;49.60
1337;DHT22;662;48.814;9.318;2023-01-01T12:09:04;18.30;49.70
1337;DHT22;662;48.814;9.318;2023-01-01T12:17:03;18.30;49.70
1337;DHT22;662;48.814;9.318;2023-01-01T12:19:36;18.30;49.70
1337;DHT22;662;48.814;9.318;2023-01-01T12:22:12;18.30;49.70
1337;DHT22;662;48.814;9.318;2023-01-01T12:24:39;18.40;49.70
1337;DHT22;662;48.814;9.318;2023-01-01T12:30:16;18.50;49.70
1337;DHT22;662;48.814;9.318;2023-01-01T12:39:04;18.60;48.80
1337;DHT22;662;48.814;9.318;2023-01-01T12:42:10;18.70;48.70
1337;DHT22;662;48.814;9.318;2023-01-01T12:45:16;18.70;48.70
1337;DHT22;662;48.814;9.318;2023-01-01T12:53:36;18.80;48.60
1337;DHT22;662;48.814;9.318;2023-01-01T12:58:57;18.90;48.40
1337;DHT22;662;48.814;9.318;2023-01-01T13:01:29;18.80;48.10
1337;DHT22;662;48.814;9.318;2023-01-01T13:04:17;18.80;47.80
1337;DHT22;662;48.814;9.318;2023-01-01T13:06:59;18.90;48.10
1337;DHT22;662;48.814;9.318;2023-01-01T13:09:32;18.90;48.50
1337;DHT22;662;48.814;9.318;2023-01-01T13:12:11;18.90;47.50
1337;DHT22;662;48.814;9.318;2023-01-01T13:14:45;18.90;47.20
1337;DHT22;662;48.814;9.318;2023-01-01T13:19:44;19.00;47.10
1337;DHT22;662;48.814;9.318;2023-01-01T13:44:16;19.20;47.00
1337;DHT22;662;48.814;9.318;2023-01-01T14:03:51;19.10;48.40
1337;DHT22;662;48.814;9.318;2023-01-01T14:06:39;19.00;48.50
1337;DHT22;662;48.814;9.318;2023-01-01T14:09:12;19.00;48.70
1337;DHT22;662;48.814;9.318;2023-01-01T14:11:38;19.00;48.80
1337;DHT22;662;48.814;9.318;2023-01-01T14:16:52;18.90;48.90
1337;DHT22;662;48.814;9.318;2023-01-01T14:19:20;18.90;49.00
1337;DHT22;662;48.814;9.318;2023-01-01T14:21:46;18.90;49.10
1337;DHT22;662;48.814;9.318;2023-01-01T14:24:15;18.90;49.20
1337;DHT22;662;48.814;9.318;2023-01-01T14:26:42;18.90;49.10
1337;DHT22;662;48.814;9.318;2023-01-01T14:29:09;18.90;49.10
1337;DHT22;662;48.814;9.318;2023-01-01T14:31:42;18.90;49.10
1337;DHT22;662;48.814;9.318;2023-01-01T14:34:29;18.90;49.10
1337;DHT22;662;48.814;9.318;2023-01-01T14:36:56;18.80;49.30
1337;DHT22;662;48.814;9.318;2023-01-01T14:39:33;18.80;49.50
1337;DHT22;662;48.814;9.318;2023-01-01T14:42:07;18.80;49.80
1337;DHT22;662;48.814;9.318;2023-01-01T14:44:38;18.70;49.90
1337;DHT22;662;48.814;9.318;2023-01-01T14:47:17;18.70;50.00
1337;DHT22;662;48.814;9.318;2023-01-01T14:49:44;18.60;50.20
1337;DHT22;662;48.814;9.318;2023-01-01T14:52:21;18.60;50.40
1337;DHT22;662;48.814;9.318;2023-01-01T14:54:47;18.50;50.40
1337;DHT22;662;48.814;9.318;2023-01-01T14:57:16;18.50;50.30
1337;DHT22;662;48.814;9.318;2023-01-01T14:59:46;18.50;50.50
1337;DHT22;662;48.814;9.318;2023-01-01T15:02:15;18.40;50.70
1337;DHT22;662;48.814;9.318;2023-01-01T15:04:41;18.40;50.80
1337;DHT22;662;48.814;9.318;2023-01-01T15:07:25;18.30;51.60
1337;DHT22;662;48.814;9.318;2023-01-01T15:09:53;18.20;51.30
1337;DHT22;662;48.814;9.318;2023-01-01T15:12:20;18.20;51.50
1337;DHT22;662;48.814;9.318;2023-01-01T15:14:49;18.10;51.60
1337;DHT22;662;48.814;9.318;2023-01-01T15:17:17;18.00;51.80
1337;DHT22;662;48.814;9.318;2023-01-01T15:19:46;17.90;52.00
1337;DHT22;662;48.814;9.318;2023-01-01T15:22:32;17.80;52.10
1337;DHT22;662;48.814;9.318;2023-01-01T15:25:00;17.70;52.50
1337;DHT22;662;48.814;9.318;2023-01-01T15:27:32;17.60;52.60
1337;DHT22;662;48.814;9.318;2023-01-01T15:29:58;17.50;52.90
1337;DHT22;662;48.814;9.318;2023-01-01T15:32:27;17.40;53.10
1337;DHT22;662;48.814;9.318;2023-01-01T15:35:04;17.40;53.40
1337;DHT22;662;48.814;9.318;2023-01-01T15:37:49;17.30;53.60
1337;DHT22;662;48.814;9.318;2023-01-01T15:45:26;17.00;54.10
1337;DHT22;662;48.814;9.318;2023-01-01T15:47:56;16.90;54.30
1337;DHT22;662;48.814;9.318;2023-01-01T15:50:28;16.80;54.40
1337;DHT22;662;48.814;9.318;2023-01-01T15:53:00;16.70;54.50
1337;DHT22;662;48.814;9.318;2023-01-01T15:55:32;16.70;54.80
1337;DHT22;662;48.814;9.318;2023-01-01T15:57:59;16.60;54.90
1337;DHT22;662;48.814;9.318;2023-01-01T16:00:30;16.60;54.90
1337;DHT22;662;48.814;9.318;2023-01-01T16:03:02;16.50;54.90
1337;DHT22;662;48.814;9.318;2023-01-01T16:05:36;16.40;54.80
1337;DHT22;662;48.814;9.318;2023-01-01T16:08:03;16.40;54.90
1337;DHT22;662;48.814;9.318;2023-01-01T16:10:29;16.30;55.00
1337;DHT22;662;48.814;9.318;2023-01-01T16:12:56;16.20;55.40
1337;DHT22;662;48.814;9.318;2023-01-01T16:15:23;16.20;55.30
1337;DHT22;662;48.814;9.318;2023-01-01T16:17:49;16.10;55.40
1337;DHT22;662;48.814;9.318;2023-01-01T16:20:19;16.10;55.50
1337;DHT22;662;48.814;9.318;2023-01-01T16:22:47;16.00;55.70
1337;DHT22;662;48.814;9.318;2023-01-01T16:25:17;16.00;55.80
1337;DHT22;662;48.814;9.318;2023-01-01T16:27:43;15.90;55.90
1337;DHT22;662;48.814;9.318;2023-01-01T16:30:10;15.90;56.00
1337;DHT22;662;48.814;9.318;2023-01-01T16:32:36;15.80;56.00
1337;DHT22;662;48.814;9.318;2023-01-01T16:35:04;15.80;56.20
1337;DHT22;662;48.814;9.318;2023-01-01T16:37:31;15.80;56.30
1337;DHT22;662;48.814;9.318;2023-01-01T16:39:57;15.70;56.30
1337;DHT22;662;48.814;9.318;2023-01-01T16:42:23;15.70;56.30
1337;DHT22;662;48.814;9.318;2023-01-01T16:44:48;15.70;56.40
1337;DHT22;662;48.814;9.318;2023-01-01T16:47:14;15.60;56.30
1337;DHT22;662;48.814;9.318;2023-01-01T16:49:40;15.60;56.30
1337;DHT22;662;48.814;9.318;2023-01-01T16:52:05;15.60;56.40
1337;DHT22;662;48.814;9.318;2023-01-01T16:54:31;15.50;56.30
1337;DHT22;662;48.814;9.318;2023-01-01T16:56:56;15.50;56.40
1337;DHT22;662;48.814;9.318;2023-01-01T16:59:22;15.40;56.50
1337;DHT22;662;48.814;9.318;2023-01-01T17:01:48;15.40;56.60
1337;DHT22;662;48.814;9.318;2023-01-01T17:04:14;15.40;56.60
1337;DHT22;662;48.814;9.318;2023-01-01T17:06:40;15.40;56.70
1337;DHT22;662;48.814;9.318;2023-01-01T17:09:06;15.30;56.70
1337;DHT22;662;48.814;9.318;2023-01-01T17:11:32;15.30;56.70
1337;DHT22;662;48.814;9.318;2023-01-01T17:13:59;15.30;56.70
1337;DHT22;662;48.814;9.318;2023-01-01T17:16:25;15.20;56.80
1337;DHT22;662;48.814;9.318;2023-01-01T17:18:55;15.20;57.00
1337;DHT22;662;48.814;9.318;2023-01-01T17:21:21;15.10;57.10
1337;DHT22;662;48.814;9.318;2023-01-01T17:23:47;15.10;57.20
1337;DHT22;662;48.814;9.318;2023-01-01T17:26:14;15.00;57.20
1337;DHT22;662;48.814;9.318;2023-01-01T17:28:41;15.00;57.30
1337;DHT22;662;48.814;9.318;2023-01-01T17:31:13;14.90;57.40
1337;DHT22;662;48.814;9.318;2023-01-01T17:33:40;14.90;57.50
1337;DHT22;662;48.814;9.318;2023-01-01T17:36:06;14.90;57.60
1337;DHT22;662;48.814;9.318;2023-01-01T17:38:32;14.80;57.60
1337;DHT22;662;48.814;9.318;2023-01-01T17:41:03;14.80;57.70
1337;DHT22;662;48.814;9.318;2023-01-01T17:43:34;14.70;57.70
1337;DHT22;662;48.814;9.318;2023-01-01T17:46:12;14.80;57.80
1337;DHT22;662;48.814;9.318;2023-01-01T17:48:39;14.70;57.70
1337;DHT22;662;48.814;9.318;2023-01-01T17:51:04;14.70;57.70
1337;DHT22;662;48.814;9.318;2023-01-01T17:53:30;14.60;57.70
1337;DHT22;662;48.814;9.318;2023-01-01T17:55:56;14.60;57.80
1337;DHT22;662;48.814;9.318;2023-01-01T17:58:22;14.60;57.90
1337;DHT22;662;48.814;9.318;2023-01-01T18:00:48;14.60;58.00
1337;DHT22;662;48.814;9.318;2023-01-01T18:03:16;14.50;58.00
1337;DHT22;662;48.814;9.318;2023-01-01T18:05:42;14.50;58.20
1337;DHT22;662;48.814;9.318;2023-01-01T18:08:08;14.40;58.10
1337;DHT22;662;48.814;9.318;2023-01-01T18:10:34;14.40;58.30
1337;DHT22;662;48.814;9.318;2023-01-01T18:12:59;14.30;58.30
1337;DHT22;662;48.814;9.318;2023-01-01T18:15:25;14.30;58.40
1337;DHT22;662;48.814;9.318;2023-01-01T18:17:51;14.20;58.50
1337;DHT22;662;48.814;9.318;2023-01-01T18:20:17;14.20;58.60
1337;DHT22;662;48.814;9.318;2023-01-01T18:22:43;14.10;58.50
1337;DHT22;662;48.814;9.318;2023-01-01T18:25:09;14.10;58.70
1337;DHT22;662;48.814;9.318;2023-01-01T18:27:35;14.10;58.80
1337;DHT22;662;48.814;9.318;2023-01-01T18:30:00;14.00;58.80
1337;DHT22;662;48.814;9.318;2023-01-01T18:32:26;14.00;58.80